CheckWX is a tool to help pilots better visualize weather data.  It is not intended as a substitute for an official pre-flight weather briefing.

20:10:07 UTC

KPLR METAR
St Clair County Airport
Pell City, Alabama, USA
Current

35 mins ago

KPLR 231935Z AUTO 20009KT 10SM CLR 27/12 A3008 RMK A01
Observed
Apr-23 @ 19:35 UTC
Wind
  • 200° at 9 KTS
Visibility
10 SM
Flight Rules
VFR
Cloud Levels
  • Clear skies
Temperature
27°C / 81°F
Dewpoint
12°C / 54°F
Humidity
39%
Altimeter
30.08" Hg
Pressure
1018.62 hPa
Previous

55 mins ago

KPLR 231915Z AUTO VRB03KT 10SM CLR 27/12 A3009 RMK A01
Observed
Apr-23 @ 19:15 UTC
Wind
  • Variable at 3 KTS
Visibility
10 SM
Flight Rules
VFR
Cloud Levels
  • Clear skies
Temperature
27°C / 81°F
Dewpoint
12°C / 54°F
Humidity
39%
Altimeter
30.09" Hg
Pressure
1018.92 hPa
Previous

1 hour ago

KPLR 231855Z AUTO 17006KT 10SM CLR 27/13 A3010 RMK A01
Observed
Apr-23 @ 18:55 UTC
Wind
  • 170° at 6 KTS
Visibility
10 SM
Flight Rules
VFR
Cloud Levels
  • Clear skies
Temperature
27°C / 81°F
Dewpoint
13°C / 55°F
Heat Index
27°C / 81°F
Humidity
42%
Altimeter
30.1" Hg
Pressure
1019.32 hPa